PILOTS ONLINE: 324    ATC ONLINE: 54

KLTS

Altus Air Force Base

Location

City Altus
Country  United States
Latitude 34° 40' 1" N
Longitude 99° 16' 0" W
Elevation 1382 ft
Type Large Airport

Map

Weather

METAR
2014/10/22 22:58
KLTS 222258Z 21003KT 10SM SCT047 SCT065 17/16 A3010 RMK AO2A RAE2253DZB2253 SLP189 P0004 T01710164 $
TAF
2014/10/22 22:43
TAF 
      AMD KLTS 2222/2323 25009KT 9000 -RA OVC080 QNH3007INS 
      BECMG 2300/2301 VRB06KT 9999 NSW BKN060 QNH3004INS 
      BECMG 2317/2318 21009KT 9999 SCT060 QNH2997INS TX18/2222Z TN15/2312Z 
      AMD 222224

Runways

17/35 3501 ft / 94 ft
174/354 3501 ft / 94 ft
17L/35R 9000 ft / 150 ft
17R/35L 13440 ft / 150 ft

Outbound flights

Callsign Flying to Pilot ATD/STD ETA Aircraft

Inbound flights

Callsign Flying from Pilot ATD ETA Aircraft